This is the latest recevied weather packets stored in our database for station/object YO6FNF-10. If no packets are shown the sender has not sent any weather packets the latest 10 day(s).
| Time | Temp. | Humidity | Pressure | Rain* | Wind** | Luminosity | Snow |
|---|---|---|---|---|---|---|---|
| 1778081543 | 21.67° C | 33% | 1014.5 hPa | - | - | - | - |
| 1778080643 | 22.22° C | 33% | 1014.6 hPa | - | - | - | - |
| 1778079742 | 23.89° C | 29% | 1014.6 hPa | - | - | - | - |
| 1778078842 | 27.22° C | 27% | 1014.6 hPa | - | - | - | - |
| 1778077942 | 26.67° C | 28% | 1014.6 hPa | - | - | - | - |
| 1778077042 | 23.89° C | 32% | 1014.5 hPa | - | - | - | - |
| 1778076142 | 23.89° C | 32% | 1014.4 hPa | - | - | - | - |
| 1778075242 | 25° C | 31% | 1014.3 hPa | - | - | - | - |
| 1778074341 | 28.33° C | 17% | 1014.2 hPa | - | - | - | - |
| 1778073441 | 28.89° C | 15% | 1014.1 hPa | - | - | - | - |
| 1778072541 | 28.89° C | 13% | 1014.3 hPa | - | - | - | - |
| 1778071641 | 28.89° C | 13% | 1014.4 hPa | - | - | - | - |
| 1778070741 | 28.89° C | 16% | 1014.6 hPa | - | - | - | - |
| 1778069840 | 28.89° C | 17% | 1014.6 hPa | - | - | - | - |
| 1778068940 | 28.89° C | 16% | 1014.8 hPa | - | - | - | - |
| 1778068040 | 28.33° C | 17% | 1015 hPa | - | - | - | - |
| 1778067140 | 28.89° C | 20% | 1015 hPa | - | - | - | - |
| 1778066240 | 28.33° C | 21% | 1015.2 hPa | - | - | - | - |
| 1778065340 | 28.89° C | 21% | 1015.4 hPa | - | - | - | - |
| 1778064439 | 28.89° C | 21% | 1015.6 hPa | - | - | - | - |
| 1778063539 | 29.44° C | 22% | 1015.6 hPa | - | - | - | - |
| 1778062639 | 27.78° C | 24% | 1015.9 hPa | - | - | - | - |
| 1778061739 | 27.78° C | 24% | 1016 hPa | - | - | - | - |
| 1778060839 | 27.22° C | 25% | 1016.1 hPa | - | - | - | - |
| 1778059938 | 27.22° C | 26% | 1016.2 hPa | - | - | - | - |
* Rain since midnight (hover to see other rain measurements)
** Current wind speed in m/s (hover to see current wind gust speed)